Withernsea, United Kingdom
Current Conditions -  °F | °C
As of 3:50 PM on Saturday 22 Nov 2014 (Local Time) from EGXS Reporting Station
Overcast Overcast  
Wind Chill: 55°   Ceiling: 900
Heat Index: 55°   Visibility: 4mi
Dew Point: 54°   Wind: 7mph
Humidity: 94%   Direction: 190°S
Pressure: 29.88"   Gusts: NA
Location:  53.73°N, 0.03°E
Report Text: EGXS 221550Z AUTO 19006KT 7000 // OVC009/// 13/12 Q1012
Loading
Personal Weather Stations






























Interactive Weather Map New forecast layout! Learn more

10-Day Weather Forecast

Advertisements
Track Severe Weather on mobile